Time;durP1;ratioP1;P1;durP2;ratioP2;P2;SDS_P1;SDS_P2;PMS_P1;PMS_P2;Temp;Humidity;BMP_temperature;BMP_pressure;BME280_temperature;BME280_humidity;BME280_pressure;Samples;Min_cycle;Max_cycle;Signal;HPM_P1;HPM_P2
2023/07/10 00:01:44;;;;;;;3.05;2.28;;;;;;;;;;5096087;28;20026;-77
2023/07/10 00:04:17;;;;;;;3.42;2.42;;;;;;;;;;5095631;28;20457;-77
2023/07/10 00:06:44;;;;;;;3.78;2.40;;;;;;;;;;5095601;28;20027;-77
2023/07/10 00:09:09;;;;;;;4.18;2.95;;;;;;;;;;5113884;28;20024;-77
2023/07/10 00:11:35;;;;;;;3.75;2.50;;;;;;;;;;5117186;28;20031;-77
2023/07/10 00:14:00;;;;;;;2.92;2.22;;;;;;;;;;5100179;28;20035;-77
2023/07/10 00:16:27;;;;;;;3.70;2.72;;;;;;;;;;5117510;28;20473;-77
2023/07/10 00:18:52;;;;;;;3.40;2.40;;;;;;;;;;5100092;28;20084;-77
2023/07/10 00:21:18;;;;;;;4.70;2.40;;;;;;;;;;5117877;28;20023;-77
2023/07/10 00:23:44;;;;;;;3.92;2.50;;;;;;;;;;5117527;28;20107;-77
2023/07/10 00:26:20;;;;;;;3.15;2.40;;;;;;;;;;5099702;28;20047;-78
2023/07/10 00:28:53;;;;;;;2.95;2.03;;;;;;;;;;5082278;28;20040;-78
2023/07/10 00:31:18;;;;;;;3.10;2.25;;;;;;;;;;5082295;28;20493;-77
2023/07/10 00:33:47;;;;;;;3.20;2.28;;;;;;;;;;5082179;28;20036;-77
2023/07/10 00:36:27;;;;;;;2.80;2.03;;;;;;;;;;5099701;28;20381;-77
2023/07/10 00:38:52;;;;;;;2.20;2.00;;;;;;;;;;5099044;28;20016;-77
2023/07/10 00:41:18;;;;;;;2.97;2.17;;;;;;;;;;5082038;28;20028;-76
2023/07/10 00:43:50;;;;;;;5.03;2.10;;;;;;;;;;5099275;28;20157;-77
2023/07/10 00:46:26;;;;;;;2.28;2.00;;;;;;;;;;5117234;28;20418;-77
2023/07/10 00:48:56;;;;;;;2.42;2.20;;;;;;;;;;5082073;28;20043;-77
2023/07/10 00:51:26;;;;;;;2.40;2.00;;;;;;;;;;5099207;28;20050;-77
2023/07/10 00:53:53;;;;;;;2.60;1.92;;;;;;;;;;5098903;28;20020;-77
2023/07/10 00:56:19;;;;;;;2.58;1.95;;;;;;;;;;5082374;28;20032;-77
2023/07/10 00:58:46;;;;;;;2.47;1.90;;;;;;;;;;5099344;28;20047;-77
2023/07/10 01:01:19;;;;;;;2.05;1.88;;;;;;;;;;5098667;28;20118;-77
2023/07/10 01:03:45;;;;;;;4.45;2.13;;;;;;;;;;5098831;28;20024;-77
2023/07/10 01:06:29;;;;;;;2.30;1.92;;;;;;;;;;5098505;28;20023;-77
2023/07/10 01:09:04;;;;;;;;;;;;;;;;;;5081852;28;20080;-77
2023/07/10 01:11:31;;;;;;;1.55;1.45;;;;;;;;;;5081478;28;20389;-77
2023/07/10 01:13:57;;;;;;;1.60;1.50;;;;;;;;;;5098676;28;20385;-77
2023/07/10 01:16:23;;;;;;;1.98;1.55;;;;;;;;;;5088370;28;20040;-77
2023/07/10 01:18:49;;;;;;;1.92;1.70;;;;;;;;;;5058005;28;20029;-77
2023/07/10 01:21:30;;;;;;;2.55;1.70;;;;;;;;;;5074439;28;20471;-77
2023/07/10 01:23:57;;;;;;;2.00;1.75;;;;;;;;;;5074608;28;20032;-77
2023/07/10 01:26:23;;;;;;;2.17;1.60;;;;;;;;;;5057833;28;20021;-77
2023/07/10 01:28:49;;;;;;;2.70;1.63;;;;;;;;;;5057797;28;20043;-77
2023/07/10 01:31:17;;;;;;;1.80;1.60;;;;;;;;;;5074712;28;20059;-77
2023/07/10 01:33:46;;;;;;;2.97;1.60;;;;;;;;;;5074500;28;20065;-77
2023/07/10 01:36:15;;;;;;;2.90;1.58;;;;;;;;;;5075861;28;20028;-78
2023/07/10 01:38:47;;;;;;;1.88;1.60;;;;;;;;;;5075850;28;20024;-78
2023/07/10 01:41:36;;;;;;;2.25;1.50;;;;;;;;;;5057801;28;20100;-77
2023/07/10 01:44:02;;;;;;;2.05;1.52;;;;;;;;;;5074347;28;20103;-77
2023/07/10 01:46:28;;;;;;;2.67;1.70;;;;;;;;;;5075771;28;20031;-78
2023/07/10 01:48:59;;;;;;;2.13;1.30;;;;;;;;;;5074263;28;20025;-78
2023/07/10 01:51:24;;;;;;;2.17;1.50;;;;;;;;;;5074137;28;20016;-78
2023/07/10 01:53:50;;;;;;;1.65;1.48;;;;;;;;;;5075344;28;20029;-78
2023/07/10 01:56:18;;;;;;;2.17;1.40;;;;;;;;;;5057678;28;20031;-78
2023/07/10 01:58:44;;;;;;;1.60;1.48;;;;;;;;;;5075384;28;20074;-77
2023/07/10 02:01:10;;;;;;;1.95;1.50;;;;;;;;;;5074128;28;20402;-77
2023/07/10 02:03:35;;;;;;;1.48;1.38;;;;;;;;;;5074995;28;20061;-77
2023/07/10 02:06:01;;;;;;;1.50;1.40;;;;;;;;;;5075068;28;20037;-77
2023/07/10 02:08:26;;;;;;;2.72;1.60;;;;;;;;;;5075264;28;20390;-77
2023/07/10 02:10:52;;;;;;;3.38;1.38;;;;;;;;;;5040312;28;20029;-77
2023/07/10 02:13:17;;;;;;;2.00;1.35;;;;;;;;;;5075120;28;20464;-77
2023/07/10 02:15:43;;;;;;;1.70;1.40;;;;;;;;;;5077773;28;20037;-78
2023/07/10 02:18:08;;;;;;;1.65;1.27;;;;;;;;;;5063729;28;20115;-77
2023/07/10 02:20:33;;;;;;;1.40;1.30;;;;;;;;;;5097533;28;20016;-78
2023/07/10 02:22:59;;;;;;;1.23;1.05;;;;;;;;;;5097446;28;20493;-77
2023/07/10 02:25:24;;;;;;;2.00;1.30;;;;;;;;;;5063564;28;20034;-77
2023/07/10 02:27:50;;;;;;;1.27;1.17;;;;;;;;;;5115610;28;20114;-77
2023/07/10 02:30:15;;;;;;;1.70;1.30;;;;;;;;;;5115027;28;20386;-77
2023/07/10 02:32:41;;;;;;;2.50;1.50;;;;;;;;;;5097414;28;20031;-77
2023/07/10 02:35:06;;;;;;;1.50;1.25;;;;;;;;;;5097469;28;20027;-77
2023/07/10 02:37:32;;;;;;;1.70;1.27;;;;;;;;;;5097298;28;20051;-77
2023/07/10 02:39:57;;;;;;;1.77;1.05;;;;;;;;;;5096978;28;20024;-77
2023/07/10 02:42:23;;;;;;;1.77;1.30;;;;;;;;;;5096311;28;20473;-77
2023/07/10 02:44:48;;;;;;;2.03;1.33;;;;;;;;;;5114850;28;20103;-76
2023/07/10 02:47:14;;;;;;;1.77;1.30;;;;;;;;;;5114851;28;20130;-77
2023/07/10 02:49:39;;;;;;;3.13;1.80;;;;;;;;;;5115330;28;20031;-77
2023/07/10 02:52:05;;;;;;;2.03;1.30;;;;;;;;;;5096796;28;20461;-77
2023/07/10 02:54:31;;;;;;;1.45;1.00;;;;;;;;;;5114770;28;20031;-77
2023/07/10 02:56:56;;;;;;;1.75;1.00;;;;;;;;;;5079725;28;20039;-77
2023/07/10 02:59:28;;;;;;;1.33;1.20;;;;;;;;;;5114946;28;20024;-77
2023/07/10 03:01:54;;;;;;;1.60;1.38;;;;;;;;;;5096951;28;20084;-77
2023/07/10 03:04:19;;;;;;;1.17;1.08;;;;;;;;;;5096448;28;20031;-77
2023/07/10 03:06:48;;;;;;;1.65;1.25;;;;;;;;;;5114849;28;20042;-77
2023/07/10 03:09:14;;;;;;;1.70;1.10;;;;;;;;;;5079567;28;20083;-77
2023/07/10 03:11:39;;;;;;;2.60;1.30;;;;;;;;;;5081983;28;20379;-77
2023/07/10 03:14:05;;;;;;;2.42;1.50;;;;;;;;;;5114399;28;20034;-77
2023/07/10 03:16:30;;;;;;;1.20;1.10;;;;;;;;;;5114501;28;20053;-77
2023/07/10 03:18:56;;;;;;;1.35;1.10;;;;;;;;;;5097110;28;20095;-78
2023/07/10 03:21:21;;;;;;;1.40;1.20;;;;;;;;;;5114210;28;20111;-77
2023/07/10 03:23:48;;;;;;;1.30;1.20;;;;;;;;;;5079246;28;20474;-77
2023/07/10 03:26:13;;;;;;;2.15;1.00;;;;;;;;;;5079662;28;20035;-77
2023/07/10 03:28:38;;;;;;;2.17;1.08;;;;;;;;;;5095951;28;20028;-77
2023/07/10 03:31:04;;;;;;;1.58;1.20;;;;;;;;;;5078934;28;20027;-77
2023/07/10 03:33:30;;;;;;;1.30;1.20;;;;;;;;;;5114243;28;20110;-77
2023/07/10 03:36:05;;;;;;;2.00;1.10;;;;;;;;;;5096060;28;20088;-77
2023/07/10 03:38:31;;;;;;;1.50;1.20;;;;;;;;;;5095840;28;20023;-77
2023/07/10 03:40:57;;;;;;;1.95;1.20;;;;;;;;;;5078504;28;20478;-77
2023/07/10 03:43:23;;;;;;;1.30;1.10;;;;;;;;;;5097111;28;20114;-77
2023/07/10 03:45:49;;;;;;;1.40;1.30;;;;;;;;;;5114107;28;20027;-77
2023/07/10 03:48:14;;;;;;;1.30;1.20;;;;;;;;;;5062218;28;20027;-77
2023/07/10 03:50:40;;;;;;;1.20;1.10;;;;;;;;;;5095597;28;20058;-77
2023/07/10 03:53:05;;;;;;;1.50;1.35;;;;;;;;;;5095572;28;20024;-77
2023/07/10 03:55:31;;;;;;;1.35;1.10;;;;;;;;;;5079353;28;20038;-77
2023/07/10 03:57:56;;;;;;;1.27;1.17;;;;;;;;;;5095776;28;20099;-77
2023/07/10 04:00:21;;;;;;;2.38;1.10;;;;;;;;;;5113956;28;20420;-77
2023/07/10 04:02:47;;;;;;;2.28;1.10;;;;;;;;;;5114540;28;20071;-77
2023/07/10 04:05:12;;;;;;;1.20;1.10;;;;;;;;;;5095902;28;20042;-77
2023/07/10 04:07:37;;;;;;;1.55;1.20;;;;;;;;;;5080797;28;20032;-77
2023/07/10 04:10:04;;;;;;;1.92;1.27;;;;;;;;;;5095916;28;20463;-76
2023/07/10 04:12:29;;;;;;;1.35;1.25;;;;;;;;;;5095763;28;20027;-76
2023/07/10 04:14:54;;;;;;;1.88;1.42;;;;;;;;;;5113806;28;20434;-77
2023/07/10 04:17:20;;;;;;;1.73;1.30;;;;;;;;;;5095674;28;20386;-77
2023/07/10 04:19:45;;;;;;;1.40;1.27;;;;;;;;;;5078924;28;20039;-76
2023/07/10 04:22:11;;;;;;;1.70;1.45;;;;;;;;;;5116036;28;20050;-76
2023/07/10 04:24:36;;;;;;;1.83;1.60;;;;;;;;;;5080348;28;20130;-76
2023/07/10 04:27:02;;;;;;;3.50;1.80;;;;;;;;;;5095612;28;20030;-76
2023/07/10 04:29:27;;;;;;;2.60;1.70;;;;;;;;;;5095581;28;20028;-76
2023/07/10 04:31:52;;;;;;;2.92;2.10;;;;;;;;;;5095395;28;20066;-77
2023/07/10 04:34:18;;;;;;;2.50;1.63;;;;;;;;;;5095457;28;20024;-77
2023/07/10 04:36:43;;;;;;;3.25;1.77;;;;;;;;;;5095663;28;20481;-79
2023/07/10 04:39:09;;;;;;;3.30;1.63;;;;;;;;;;5095300;28;20024;-76
2023/07/10 04:41:37;;;;;;;2.47;1.80;;;;;;;;;;5095508;28;20036;-76
2023/07/10 04:44:03;;;;;;;2.42;1.60;;;;;;;;;;5078316;28;20496;-77
2023/07/10 04:46:29;;;;;;;2.90;1.50;;;;;;;;;;5095098;28;20055;-77
2023/07/10 04:48:55;;;;;;;2.63;1.60;;;;;;;;;;5095337;28;20466;-77
2023/07/10 04:51:20;;;;;;;3.92;1.40;;;;;;;;;;5095712;28;20081;-77
2023/07/10 04:53:46;;;;;;;2.83;1.20;;;;;;;;;;5095237;28;20030;-76
2023/07/10 04:56:13;;;;;;;2.08;1.42;;;;;;;;;;5113577;28;20046;-77
2023/07/10 04:59:04;;;;;;;3.00;1.40;;;;;;;;;;5081121;28;20027;-76
2023/07/10 05:01:34;;;;;;;1.50;1.40;;;;;;;;;;5078235;28;20488;-77
2023/07/10 05:04:00;;;;;;;2.70;1.52;;;;;;;;;;5099309;28;20024;-77
2023/07/10 05:06:26;;;;;;;2.83;1.40;;;;;;;;;;5098984;28;20027;-76
2023/07/10 05:08:53;;;;;;;2.35;1.60;;;;;;;;;;5081553;28;20032;-76
2023/07/10 05:11:18;;;;;;;2.65;1.80;;;;;;;;;;5098667;28;20036;-76
2023/07/10 05:13:44;;;;;;;7.20;2.60;;;;;;;;;;5098862;28;20052;-75
2023/07/10 05:16:10;;;;;;;3.42;1.98;;;;;;;;;;5098900;28;20130;-77
2023/07/10 05:18:35;;;;;;;4.70;2.60;;;;;;;;;;5099290;28;20039;-77
2023/07/10 05:21:02;;;;;;;8.90;2.78;;;;;;;;;;5117007;28;20024;-77
2023/07/10 05:23:28;;;;;;;5.50;3.13;;;;;;;;;;5081454;28;20389;-77
2023/07/10 05:25:57;;;;;;;7.97;3.40;;;;;;;;;;5064780;28;20497;-76
2023/07/10 05:28:23;;;;;;;8.00;3.63;;;;;;;;;;5098097;28;20035;-76
2023/07/10 05:30:48;;;;;;;7.85;3.53;;;;;;;;;;5098484;28;20069;-77
2023/07/10 05:33:14;;;;;;;7.93;3.75;;;;;;;;;;5098457;28;20028;-77
2023/07/10 05:35:51;;;;;;;9.90;4.20;;;;;;;;;;5098140;28;20069;-77
2023/07/10 05:38:16;;;;;;;8.25;3.50;;;;;;;;;;5098471;28;20023;-77
2023/07/10 05:40:42;;;;;;;8.30;3.42;;;;;;;;;;5116452;28;20073;-77
2023/07/10 05:43:07;;;;;;;12.63;3.80;;;;;;;;;;5081058;28;20484;-77
2023/07/10 05:45:33;;;;;;;12.90;3.80;;;;;;;;;;5097947;28;20027;-77
2023/07/10 05:47:58;;;;;;;6.78;2.47;;;;;;;;;;5098144;28;20038;-77
2023/07/10 05:50:23;;;;;;;4.38;2.33;;;;;;;;;;5116218;28;20024;-77
2023/07/10 05:52:49;;;;;;;6.03;2.65;;;;;;;;;;5097684;28;20455;-76
2023/07/10 05:55:14;;;;;;;6.38;3.25;;;;;;;;;;5097720;28;20035;-77
2023/07/10 05:57:39;;;;;;;5.38;2.70;;;;;;;;;;5115914;28;20032;-76
2023/07/10 06:00:05;;;;;;;6.15;2.58;;;;;;;;;;5097606;28;20035;-77
2023/07/10 06:02:31;;;;;;;5.55;2.65;;;;;;;;;;5080843;28;20363;-76
2023/07/10 06:04:56;;;;;;;5.88;2.80;;;;;;;;;;5116279;28;20042;-77
2023/07/10 06:07:21;;;;;;;6.50;2.47;;;;;;;;;;5116407;28;20072;-77
2023/07/10 06:09:47;;;;;;;5.50;2.45;;;;;;;;;;5116651;28;20115;-77
2023/07/10 06:12:12;;;;;;;3.92;2.35;;;;;;;;;;5100976;28;20385;-76
2023/07/10 06:14:38;;;;;;;7.85;2.50;;;;;;;;;;5116711;28;20370;-76
2023/07/10 06:17:03;;;;;;;4.57;2.35;;;;;;;;;;5071169;28;20094;-77
2023/07/10 06:19:29;;;;;;;4.75;2.30;;;;;;;;;;5074111;28;20539;-77
2023/07/10 06:22:11;;;;;;;3.25;2.00;;;;;;;;;;5057221;28;20054;-77
2023/07/10 06:24:38;;;;;;;4.47;2.00;;;;;;;;;;5073739;28;20414;-77
2023/07/10 06:27:05;;;;;;;4.43;1.88;;;;;;;;;;5056828;28;20376;-76
2023/07/10 06:29:32;;;;;;;4.60;1.90;;;;;;;;;;5056985;28;20451;-77
2023/07/10 06:31:58;;;;;;;4.47;2.15;;;;;;;;;;5073415;28;20127;-77
2023/07/10 06:34:23;;;;;;;4.75;2.20;;;;;;;;;;5039995;28;20033;-77
2023/07/10 06:36:48;;;;;;;5.55;2.00;;;;;;;;;;5074470;28;20031;-76
2023/07/10 06:39:14;;;;;;;3.85;1.70;;;;;;;;;;5073614;28;20379;-77
2023/07/10 06:41:39;;;;;;;3.53;1.70;;;;;;;;;;5073153;28;20114;-77
2023/07/10 06:44:04;;;;;;;1.85;1.40;;;;;;;;;;5074696;28;20032;-76
2023/07/10 06:46:30;;;;;;;2.47;1.70;;;;;;;;;;5074291;28;20100;-76
2023/07/10 06:48:55;;;;;;;3.25;1.70;;;;;;;;;;5072948;28;20028;-77
2023/07/10 06:51:21;;;;;;;3.92;1.70;;;;;;;;;;5072859;28;20033;-76
2023/07/10 06:53:46;;;;;;;4.40;1.90;;;;;;;;;;5074217;28;20115;-76
2023/07/10 06:56:12;;;;;;;2.80;1.55;;;;;;;;;;5056155;28;20357;-77
2023/07/10 06:58:37;;;;;;;2.42;1.67;;;;;;;;;;5074050;28;20029;-77
2023/07/10 07:01:03;;;;;;;2.88;1.75;;;;;;;;;;5073123;28;20029;-76
2023/07/10 07:03:29;;;;;;;5.25;1.40;;;;;;;;;;5055951;28;20062;-77
2023/07/10 07:05:54;;;;;;;4.30;1.85;;;;;;;;;;5056006;28;20452;-76
2023/07/10 07:08:21;;;;;;;4.22;1.55;;;;;;;;;;5073793;28;20032;-76
2023/07/10 07:10:49;;;;;;;3.75;1.52;;;;;;;;;;5073726;28;20039;-77
2023/07/10 07:13:14;;;;;;;2.30;1.40;;;;;;;;;;5073805;28;20024;-76
2023/07/10 07:15:40;;;;;;;2.00;1.40;;;;;;;;;;5055756;28;20123;-76
2023/07/10 07:18:05;;;;;;;4.13;1.38;;;;;;;;;;5072349;28;20499;-76
2023/07/10 07:20:32;;;;;;;2.92;1.50;;;;;;;;;;5073033;28;20475;-77
2023/07/10 07:22:57;;;;;;;3.58;1.60;;;;;;;;;;5072367;28;20479;-77
2023/07/10 07:25:22;;;;;;;2.65;1.38;;;;;;;;;;5072387;28;20067;-77
2023/07/10 07:27:48;;;;;;;3.55;1.50;;;;;;;;;;5073882;28;20032;-76
2023/07/10 07:30:13;;;;;;;2.80;1.40;;;;;;;;;;5073432;28;20072;-76
2023/07/10 07:32:39;;;;;;;4.65;1.45;;;;;;;;;;5072263;28;20510;-77
2023/07/10 07:35:04;;;;;;;1.55;1.10;;;;;;;;;;5073528;28;20589;-76
2023/07/10 07:37:30;;;;;;;2.60;1.23;;;;;;;;;;5073666;28;20028;-76
2023/07/10 07:39:57;;;;;;;2.65;1.20;;;;;;;;;;5055665;28;20032;-77
2023/07/10 07:42:22;;;;;;;3.60;1.63;;;;;;;;;;5055628;28;20039;-77
2023/07/10 07:44:48;;;;;;;2.83;1.45;;;;;;;;;;5072492;28;20028;-77
2023/07/10 07:47:13;;;;;;;1.75;1.30;;;;;;;;;;5072368;28;20070;-77
2023/07/10 07:49:38;;;;;;;2.53;1.20;;;;;;;;;;5072129;28;20404;-77
2023/07/10 07:52:04;;;;;;;2.15;1.40;;;;;;;;;;5073546;28;20025;-77
2023/07/10 07:54:30;;;;;;;3.78;1.52;;;;;;;;;;5072086;28;20063;-77
2023/07/10 07:56:55;;;;;;;2.40;1.33;;;;;;;;;;5073216;28;20034;-77
2023/07/10 07:59:22;;;;;;;2.55;1.20;;;;;;;;;;5055292;28;20482;-77
2023/07/10 08:01:49;;;;;;;3.40;1.33;;;;;;;;;;5073500;28;20037;-77
2023/07/10 08:04:15;;;;;;;3.47;1.20;;;;;;;;;;5072093;28;20043;-77
2023/07/10 08:06:41;;;;;;;3.80;1.40;;;;;;;;;;5055577;28;20116;-77
2023/07/10 08:09:06;;;;;;;3.03;1.20;;;;;;;;;;5071893;28;20108;-77
2023/07/10 08:11:31;;;;;;;3.10;1.27;;;;;;;;;;5073175;28;20025;-77
2023/07/10 08:13:57;;;;;;;4.15;1.40;;;;;;;;;;5071922;28;20528;-76
2023/07/10 08:16:24;;;;;;;2.85;1.30;;;;;;;;;;5074371;28;20110;-77
2023/07/10 08:18:49;;;;;;;2.08;1.20;;;;;;;;;;5095825;28;20040;-76
2023/07/10 08:21:15;;;;;;;2.97;1.45;;;;;;;;;;5095450;28;20093;-76
2023/07/10 08:23:41;;;;;;;1.95;1.20;;;;;;;;;;5113564;28;20050;-77
2023/07/10 08:26:07;;;;;;;1.52;1.02;;;;;;;;;;5095469;28;20473;-77
2023/07/10 08:28:32;;;;;;;2.05;1.00;;;;;;;;;;5113676;28;20488;-77
2023/07/10 08:30:58;;;;;;;2.55;1.27;;;;;;;;;;5095682;28;20045;-77
2023/07/10 08:33:23;;;;;;;3.78;1.38;;;;;;;;;;5099726;28;20083;-77
2023/07/10 08:35:57;;;;;;;3.13;1.45;;;;;;;;;;5099597;28;20055;-77
2023/07/10 08:38:22;;;;;;;3.42;1.17;;;;;;;;;;5117613;28;20031;-76
2023/07/10 08:40:50;;;;;;;3.13;1.27;;;;;;;;;;5117793;28;20427;-76
2023/07/10 08:43:22;;;;;;;2.40;1.25;;;;;;;;;;5099268;28;20381;-77
2023/07/10 08:45:47;;;;;;;2.17;1.30;;;;;;;;;;5099210;28;20023;-77
2023/07/10 08:48:27;;;;;;;2.72;1.33;;;;;;;;;;5099279;28;20039;-77
2023/07/10 08:50:57;;;;;;;2.40;1.38;;;;;;;;;;5117359;28;20129;-77
2023/07/10 08:53:25;;;;;;;2.53;1.30;;;;;;;;;;5081920;28;20030;-77
2023/07/10 08:56:00;;;;;;;2.78;1.38;;;;;;;;;;5099450;28;20035;-77
2023/07/10 08:58:30;;;;;;;2.90;1.30;;;;;;;;;;5081712;28;20393;-77
2023/07/10 09:00:59;;;;;;;4.22;1.50;;;;;;;;;;5098929;28;20099;-77
2023/07/10 09:03:46;;;;;;;2.42;1.20;;;;;;;;;;5081719;28;20027;-77
2023/07/10 09:06:27;;;;;;;2.72;1.20;;;;;;;;;;5081824;28;20028;-77
2023/07/10 09:08:53;;;;;;;2.72;1.38;;;;;;;;;;5098617;28;20026;-77
2023/07/10 09:11:19;;;;;;;3.63;1.33;;;;;;;;;;5098641;28;20482;-77
2023/07/10 09:13:52;;;;;;;2.40;1.25;;;;;;;;;;5098623;28;20125;-77
2023/07/10 09:16:19;;;;;;;2.38;1.15;;;;;;;;;;5098492;28;20015;-77
2023/07/10 09:18:49;;;;;;;2.53;1.15;;;;;;;;;;5081840;28;20124;-76
2023/07/10 09:21:25;;;;;;;2.67;1.30;;;;;;;;;;5098482;28;20026;-77
2023/07/10 09:23:51;;;;;;;2.63;1.50;;;;;;;;;;5116923;28;20027;-77
2023/07/10 09:26:19;;;;;;;3.92;1.33;;;;;;;;;;5098147;28;20035;-77
2023/07/10 09:28:57;;;;;;;3.75;1.30;;;;;;;;;;5081258;28;20023;-77
2023/07/10 09:31:51;;;;;;;5.07;1.60;;;;;;;;;;5098271;28;20076;-78
2023/07/10 09:34:21;;;;;;;2.37;1.23;;;;;;;;;;5116569;28;20504;-77
2023/07/10 09:36:53;;;;;;;2.65;1.38;;;;;;;;;;5081720;28;20271;-77
2023/07/10 09:39:18;;;;;;;3.65;1.50;;;;;;;;;;5081077;28;20020;-77
2023/07/10 09:41:46;;;;;;;4.20;1.30;;;;;;;;;;5081210;28;20050;-77
2023/07/10 09:44:21;;;;;;;3.38;1.38;;;;;;;;;;5097508;28;20035;-77
2023/07/10 09:46:47;;;;;;;2.53;1.30;;;;;;;;;;5097739;28;20031;-77
2023/07/10 09:49:18;;;;;;;4.53;1.58;;;;;;;;;;5081273;28;20379;-77
2023/07/10 09:51:56;;;;;;;3.35;1.25;;;;;;;;;;5098100;28;20019;-77
2023/07/10 09:54:22;;;;;;;2.55;1.40;;;;;;;;;;5115947;28;20162;-77
2023/07/10 09:56:48;;;;;;;3.38;1.40;;;;;;;;;;5098029;28;20114;-77
2023/07/10 09:59:26;;;;;;;2.05;1.25;;;;;;;;;;5098258;28;20378;-77
2023/07/10 10:01:53;;;;;;;3.60;1.38;;;;;;;;;;5098361;28;20023;-77
2023/07/10 10:04:27;;;;;;;3.20;1.42;;;;;;;;;;5097492;28;20462;-77
2023/07/10 10:07:13;;;;;;;3.97;1.48;;;;;;;;;;5080698;28;20032;-77
2023/07/10 10:09:38;;;;;;;2.67;1.30;;;;;;;;;;5097430;28;20084;-77
2023/07/10 10:12:11;;;;;;;2.10;1.10;;;;;;;;;;5063878;28;20118;-77
2023/07/10 10:14:41;;;;;;;5.53;1.80;;;;;;;;;;5115856;28;20034;-77
2023/07/10 10:17:10;;;;;;;4.43;1.67;;;;;;;;;;5097145;28;20276;-77
2023/07/10 10:19:41;;;;;;;3.63;1.42;;;;;;;;;;5097280;28;20028;-76
2023/07/10 10:22:11;;;;;;;3.20;1.50;;;;;;;;;;5097565;28;20019;-76
2023/07/10 10:24:37;;;;;;;2.70;1.23;;;;;;;;;;5097587;28;20084;-77
2023/07/10 10:27:16;;;;;;;3.25;1.58;;;;;;;;;;5080084;28;20019;-76
2023/07/10 10:30:19;;;;;;;3.60;1.48;;;;;;;;;;5097065;28;20022;-76
2023/07/10 10:33:07;;;;;;;2.70;1.50;;;;;;;;;;5115538;28;20034;-76
2023/07/10 10:36:00;;;;;;;3.15;1.33;;;;;;;;;;5097122;28;20028;-77
2023/07/10 10:38:28;;;;;;;2.47;1.33;;;;;;;;;;5097476;28;20024;-76
2023/07/10 10:41:16;;;;;;;4.32;1.33;;;;;;;;;;5096944;28;20020;-76
2023/07/10 10:43:55;;;;;;;2.28;1.02;;;;;;;;;;5096772;28;20523;-76
2023/07/10 10:46:43;;;;;;;2.13;1.08;;;;;;;;;;5097083;28;20485;-76
2023/07/10 10:49:21;;;;;;;3.53;1.20;;;;;;;;;;5096795;28;20493;-76
2023/07/10 10:51:50;;;;;;;4.10;1.60;;;;;;;;;;5097062;28;20034;-76
2023/07/10 10:54:37;;;;;;;3.17;1.45;;;;;;;;;;5095593;28;20028;-76
2023/07/10 10:57:36;;;;;;;4.82;1.65;;;;;;;;;;5114179;28;20390;-77
2023/07/10 11:00:16;;;;;;;8.20;2.72;;;;;;;;;;5095838;28;20058;-76
2023/07/10 11:03:10;;;;;;;12.07;2.78;;;;;;;;;;5114063;28;20087;-76
2023/07/10 11:05:45;;;;;;;8.48;2.15;;;;;;;;;;5095861;28;20077;-76
2023/07/10 11:08:38;;;;;;;9.38;3.10;;;;;;;;;;5095980;28;20394;-77
2023/07/10 11:11:19;;;;;;;7.15;3.38;;;;;;;;;;5099926;28;20035;-76
2023/07/10 11:13:44;;;;;;;7.25;2.63;;;;;;;;;;5096508;28;20028;-75
2023/07/10 11:16:10;;;;;;;7.40;2.20;;;;;;;;;;5096498;28;20565;-76
2023/07/10 11:18:37;;;;;;;4.20;1.98;;;;;;;;;;5114462;28;20046;-76
2023/07/10 11:21:03;;;;;;;6.68;2.67;;;;;;;;;;5080337;28;20036;-76
2023/07/10 11:23:40;;;;;;;6.65;2.72;;;;;;;;;;5115078;28;20038;-76
2023/07/10 11:26:12;;;;;;;7.07;2.25;;;;;;;;;;5114421;28;20027;-76
2023/07/10 11:28:48;;;;;;;4.78;1.90;;;;;;;;;;5096461;28;20019;-75
2023/07/10 11:31:31;;;;;;;4.78;1.80;;;;;;;;;;5096774;28;20110;-75
2023/07/10 11:34:05;;;;;;;9.23;1.73;;;;;;;;;;5114235;28;20420;-74
2023/07/10 11:36:33;;;;;;;5.15;1.90;;;;;;;;;;5114124;28;20416;-76
2023/07/10 11:39:05;;;;;;;4.80;1.70;;;;;;;;;;5114354;28;20024;-75
2023/07/10 11:41:53;;;;;;;4.82;1.80;;;;;;;;;;5114259;28;20130;-76
2023/07/10 11:44:20;;;;;;;4.15;1.80;;;;;;;;;;5085123;28;20032;-76
2023/07/10 11:47:23;;;;;;;15.95;6.90;;;;;;;;;;5095712;28;20570;-75
2023/07/10 11:49:51;;;;;;;35.30;15.98;;;;;;;;;;5075526;28;20074;-75
2023/07/10 11:52:16;;;;;;;46.58;21.70;;;;;;;;;;5095683;28;20552;-76
2023/07/10 11:54:45;;;;;;;56.47;25.90;;;;;;;;;;5113910;28;20028;-75
2023/07/10 11:57:10;;;;;;;59.08;26.73;;;;;;;;;;5114017;28;20027;-75
2023/07/10 11:59:41;;;;;;;75.55;33.78;;;;;;;;;;5114409;28;20039;-75
2023/07/10 12:02:26;;;;;;;75.47;33.75;;;;;;;;;;5096291;28;20110;-75
2023/07/10 12:04:52;;;;;;;70.68;33.08;;;;;;;;;;5095451;28;20030;-77
2023/07/10 12:07:17;;;;;;;59.28;29.25;;;;;;;;;;5098980;28;20458;-76
2023/07/10 12:09:43;;;;;;;68.47;30.90;;;;;;;;;;5082819;28;20019;-76
2023/07/10 12:12:11;;;;;;;64.65;29.45;;;;;;;;;;5100557;28;20031;-76
2023/07/10 12:14:36;;;;;;;61.22;28.05;;;;;;;;;;5100167;28;20031;-75
2023/07/10 12:17:04;;;;;;;64.88;27.92;;;;;;;;;;5099431;28;20040;-76
2023/07/10 12:19:37;;;;;;;49.88;25.65;;;;;;;;;;5099751;28;20039;-75
2023/07/10 12:22:23;;;;;;;60.25;24.35;;;;;;;;;;5099730;28;20454;-76
2023/07/10 12:24:54;;;;;;;44.58;21.42;;;;;;;;;;5067010;23;20042;-76
2023/07/10 12:27:21;;;;;;;43.33;20.95;;;;;;;;;;4983292;28;20034;-76
2023/07/10 12:29:52;;;;;;;49.10;22.08;;;;;;;;;;4999066;28;20121;-76
2023/07/10 12:32:19;;;;;;;48.40;22.55;;;;;;;;;;5000046;28;20030;-76
2023/07/10 12:34:47;;;;;;;41.50;19.50;;;;;;;;;;5015630;28;20400;-76
2023/07/10 12:37:17;;;;;;;43.50;20.38;;;;;;;;;;5015647;28;20396;-75
2023/07/10 12:39:49;;;;;;;41.63;18.83;;;;;;;;;;5015785;28;20099;-75
2023/07/10 12:42:41;;;;;;;39.42;18.40;;;;;;;;;;5015725;28;20041;-75
2023/07/10 12:45:20;;;;;;;30.58;16.20;;;;;;;;;;5013531;28;20037;-75
2023/07/10 12:47:55;;;;;;;31.75;15.63;;;;;;;;;;4998962;28;20030;-75
2023/07/10 12:50:34;;;;;;;29.33;15.02;;;;;;;;;;4998765;28;20029;-75
2023/07/10 12:53:03;;;;;;;31.77;14.48;;;;;;;;;;5016465;28;20030;-75
2023/07/10 12:55:31;;;;;;;30.08;13.13;;;;;;;;;;5015172;28;20109;-75
2023/07/10 12:58:01;;;;;;;30.83;13.88;;;;;;;;;;5015138;28;20029;-75
2023/07/10 13:00:47;;;;;;;28.55;13.70;;;;;;;;;;5014919;28;20113;-75
2023/07/10 13:03:23;;;;;;;23.13;12.48;;;;;;;;;;4998571;28;20033;-75
2023/07/10 13:05:54;;;;;;;26.30;12.45;;;;;;;;;;5015010;28;20385;-76
2023/07/10 13:08:20;;;;;;;28.75;12.32;;;;;;;;;;4997555;28;20081;-75
2023/07/10 13:10:46;;;;;;;25.13;11.50;;;;;;;;;;5014592;28;20489;-75
2023/07/10 13:13:20;;;;;;;20.50;10.65;;;;;;;;;;5014701;28;20060;-75
2023/07/10 13:15:46;;;;;;;22.92;10.32;;;;;;;;;;5015006;28;20492;-75
2023/07/10 13:18:32;;;;;;;18.00;8.98;;;;;;;;;;5013351;28;20037;-76
2023/07/10 13:20:58;;;;;;;18.77;9.32;;;;;;;;;;5014733;28;20013;-75
2023/07/10 13:23:23;;;;;;;14.70;8.35;;;;;;;;;;5014525;28;20659;-75
2023/07/10 13:25:49;;;;;;;16.63;8.02;;;;;;;;;;5028930;28;20057;-75
2023/07/10 13:28:21;;;;;;;17.85;8.52;;;;;;;;;;5050759;28;20029;-75
2023/07/10 13:30:47;;;;;;;15.80;7.50;;;;;;;;;;5051018;28;20571;-76
2023/07/10 13:33:20;;;;;;;14.80;7.57;;;;;;;;;;5050803;28;20057;-75
2023/07/10 13:35:47;;;;;;;12.75;6.55;;;;;;;;;;5051240;28;20426;-75
2023/07/10 13:38:15;;;;;;;13.68;7.28;;;;;;;;;;5050679;28;20110;-75
2023/07/10 13:40:40;;;;;;;12.13;6.82;;;;;;;;;;5034265;28;20025;-75
2023/07/10 13:43:15;;;;;;;15.43;6.80;;;;;;;;;;5051001;28;20047;-75
2023/07/10 13:45:40;;;;;;;12.25;6.40;;;;;;;;;;5034210;28;20017;-75
2023/07/10 13:48:14;;;;;;;13.20;5.88;;;;;;;;;;5050383;28;20120;-75
2023/07/10 13:50:40;;;;;;;9.68;5.03;;;;;;;;;;5033797;28;20467;-76
2023/07/10 13:53:06;;;;;;;10.57;5.43;;;;;;;;;;5033859;28;20049;-75
2023/07/10 13:55:32;;;;;;;13.15;5.45;;;;;;;;;;5038369;28;20033;-76
2023/07/10 13:57:58;;;;;;;8.52;4.32;;;;;;;;;;5050208;28;20026;-75
2023/07/10 14:00:23;;;;;;;7.38;4.50;;;;;;;;;;5034953;28;20041;-75
2023/07/10 14:02:51;;;;;;;9.02;4.43;;;;;;;;;;5050518;28;20064;-75
2023/07/10 14:05:18;;;;;;;8.80;4.00;;;;;;;;;;5033559;28;20434;-75
2023/07/10 14:07:45;;;;;;;10.32;4.28;;;;;;;;;;5050088;28;20080;-75
2023/07/10 14:10:19;;;;;;;7.22;4.07;;;;;;;;;;5050226;28;20026;-75
2023/07/10 14:12:45;;;;;;;8.65;4.55;;;;;;;;;;5050219;28;20022;-75
2023/07/10 14:15:18;;;;;;;8.80;4.28;;;;;;;;;;5033470;28;20025;-75
2023/07/10 14:17:44;;;;;;;8.13;4.32;;;;;;;;;;5034548;28;20033;-76
2023/07/10 14:20:21;;;;;;;6.47;3.70;;;;;;;;;;5033560;28;20168;-75
2023/07/10 14:22:46;;;;;;;7.25;3.88;;;;;;;;;;5050004;28;20021;-75
2023/07/10 14:25:13;;;;;;;8.15;4.25;;;;;;;;;;5051608;28;20136;-75
2023/07/10 14:27:39;;;;;;;8.30;4.38;;;;;;;;;;5066317;28;20025;-76
2023/07/10 14:30:05;;;;;;;6.47;3.58;;;;;;;;;;5054442;28;20044;-75
2023/07/10 14:32:31;;;;;;;7.15;3.63;;;;;;;;;;5049639;28;20060;-75
2023/07/10 14:34:56;;;;;;;8.23;3.63;;;;;;;;;;5034353;28;20492;-75
2023/07/10 14:37:25;;;;;;;8.90;3.80;;;;;;;;;;5034023;28;20091;-75
2023/07/10 14:39:51;;;;;;;7.10;3.70;;;;;;;;;;5032965;28;20033;-76
2023/07/10 14:42:21;;;;;;;5.75;3.40;;;;;;;;;;5049927;28;20439;-75
2023/07/10 14:44:48;;;;;;;8.65;3.90;;;;;;;;;;5050287;28;20029;-77
2023/07/10 14:47:26;;;;;;;6.47;3.95;;;;;;;;;;5033183;28;20022;-77
2023/07/10 14:49:51;;;;;;;10.93;3.45;;;;;;;;;;5033033;28;20033;-77
2023/07/10 14:52:19;;;;;;;6.68;3.85;;;;;;;;;;5034400;28;20029;-77